This is the latest recevied weather packets stored in our database for station/object K4ROM-1. If no packets are shown the sender has not sent any weather packets the latest 10 day(s).
| Time | Temp. | Humidity | Pressure | Rain* | Wind** | Luminosity | Snow |
|---|---|---|---|---|---|---|---|
| 1777837203 | 20° C | 33% | 1018.3 hPa | 0 mm | 1.34 m/s, 245° | - | - |
| 1777836603 | 19.44° C | 36% | 1018.4 hPa | 0 mm | 0.45 m/s, 267° | - | - |
| 1777836003 | 18.89° C | 36% | 1018.5 hPa | 0 mm | 1.34 m/s, 19° | - | - |
| 1777835403 | 19.44° C | 36% | 1018.8 hPa | 0 mm | 0 m/s | - | - |
| 1777834803 | 18.89° C | 31% | 1019.1 hPa | 0 mm | 1.34 m/s, 327° | - | - |
| 1777834203 | 18.89° C | 33% | 1019.1 hPa | 0 mm | 0.89 m/s, 35° | - | - |
| 1777833602 | 19.44° C | 34% | 1019.1 hPa | 0 mm | 1.34 m/s, 356° | - | - |
| 1777833004 | 18.89° C | 32% | 1019.3 hPa | 0 mm | 1.79 m/s, 257° | - | - |
| 1777832404 | 18.89° C | 36% | 1019.2 hPa | 0 mm | 2.24 m/s, 1° | - | - |
| 1777831803 | 18.33° C | 38% | 1019.4 hPa | 0 mm | 0 m/s | - | - |
| 1777831203 | 18.33° C | 34% | 1019.6 hPa | 0 mm | 0.45 m/s, 255° | - | - |
| 1777830602 | 18.89° C | 36% | 1019.6 hPa | 0 mm | 1.34 m/s, 274° | - | - |
| 1777830003 | 18.33° C | 35% | 1019.8 hPa | 0 mm | 1.34 m/s, 84° | - | - |
| 1777829403 | 18.33° C | 38% | 1019.8 hPa | 0 mm | 0.45 m/s, 306° | - | - |
| 1777828803 | 17.78° C | 37% | 1020.2 hPa | 0 mm | 1.79 m/s, 351° | - | - |
| 1777828203 | 17.78° C | 37% | 1020.3 hPa | 0 mm | 0.89 m/s, 261° | - | - |
| 1777827603 | 17.22° C | 40% | 1020.2 hPa | 0 mm | 0.45 m/s, 259° | - | - |
| 1777827003 | 17.22° C | 39% | 1020.6 hPa | 0 mm | 1.34 m/s, 261° | - | - |
| 1777826403 | 17.22° C | 38% | 1020.7 hPa | 0 mm | 2.24 m/s, 348° | - | - |
| 1777825803 | 16.67° C | 40% | 1020.6 hPa | 0 mm | 0.45 m/s, 348° | - | - |
| 1777825203 | 16.11° C | 40% | 1020.6 hPa | 0 mm | 0.89 m/s, 60° | - | - |
| 1777824603 | 16.11° C | 40% | 1020.9 hPa | 0 mm | 0.89 m/s, 250° | - | - |
| 1777824003 | 15.56° C | 40% | 1020.9 hPa | 0 mm | 0.89 m/s, 348° | - | - |
| 1777823403 | 16.11° C | 41% | 1021 hPa | 0 mm | 0.89 m/s, 357° | - | - |
| 1777822803 | 16.11° C | 40% | 1021.2 hPa | 0 mm | 1.79 m/s, 330° | - | - |
* Rain latest hour (hover to see other rain measurements)
** Current wind speed in m/s (hover to see current wind gust speed)